Time;durP1;ratioP1;P1;durP2;ratioP2;P2;SDS_P1;SDS_P2;PMS_P1;PMS_P2;Temp;Humidity;BMP_temperature;BMP_pressure;BME280_temperature;BME280_humidity;BME280_pressure;Samples;Min_cycle;Max_cycle;Signal;HPM_P1;HPM_P2
2022/01/18 00:01:33;;;;;;;2.38;1.60;;;;;;;;;;5013658;28;20028;-85
2022/01/18 00:04:00;;;;;;;2.15;1.45;;;;;;;;;;5033907;28;20022;-84
2022/01/18 00:06:26;;;;;;;2.78;1.63;;;;;;;;;;5014129;28;20055;-86
2022/01/18 00:08:52;;;;;;;3.22;1.90;;;;;;;;;;5014940;28;20052;-89
2022/01/18 00:11:20;;;;;;;3.58;2.38;;;;;;;;;;5016227;28;20051;-85
2022/01/18 00:13:49;;;;;;;2.35;1.45;;;;;;;;;;5033833;28;20485;-86
2022/01/18 00:17:02;;;;;;;2.78;1.90;;;;;;;;;;5016118;28;20040;-84
2022/01/18 00:19:09;;;;;;;4.22;2.20;;;;;;;;;;5023084;28;20521;-86
2022/01/18 00:22:12;;;;;;;2.67;1.90;;;;;;;;;;5016050;28;20393;-83
2022/01/18 00:24:26;;;;;;;3.35;1.63;;;;;;;;;;5029635;28;20057;-88
2022/01/18 00:26:52;;;;;;;4.55;1.75;;;;;;;;;;5034310;28;20025;-88
2022/01/18 00:29:21;;;;;;;2.75;2.15;;;;;;;;;;5015842;28;20025;-90
2022/01/18 00:32:28;;;;;;;3.78;1.98;;;;;;;;;;5015926;28;20120;-88
2022/01/18 00:34:40;;;;;;;3.88;1.80;;;;;;;;;;5029741;28;20115;-85
2022/01/18 00:39:40;;;;;;;2.80;1.42;;;;;;;;;;5033307;28;20593;-84
2022/01/18 00:42:07;;;;;;;3.53;1.98;;;;;;;;;;5013326;28;20022;-87
2022/01/18 00:44:32;;;;;;;3.70;2.67;;;;;;;;;;5033272;28;20680;-88
2022/01/18 00:46:58;;;;;;;3.55;1.83;;;;;;;;;;5015663;28;20025;-87
2022/01/18 00:49:24;;;;;;;2.97;2.28;;;;;;;;;;5013612;28;20120;-86
2022/01/18 00:51:55;;;;;;;4.03;2.40;;;;;;;;;;5013513;28;20170;-87
2022/01/18 00:54:24;;;;;;;3.20;2.13;;;;;;;;;;5013437;28;20033;-86
2022/01/18 00:56:52;;;;;;;2.95;1.90;;;;;;;;;;5015433;28;20516;-84
2022/01/18 00:59:20;;;;;;;3.58;2.33;;;;;;;;;;5032768;28;20029;-84
2022/01/18 01:01:45;;;;;;;3.30;2.05;;;;;;;;;;5015371;28;20025;-84
2022/01/18 01:04:11;;;;;;;4.63;2.40;;;;;;;;;;5020784;28;20055;-86
2022/01/18 01:06:37;;;;;;;3.00;2.20;;;;;;;;;;5014852;28;20886;-85
2022/01/18 01:09:04;;;;;;;4.55;2.85;;;;;;;;;;5015048;28;20394;-84
2022/01/18 01:11:30;;;;;;;2.92;2.03;;;;;;;;;;5014931;28;20055;-87
2022/01/18 01:14:00;;;;;;;3.13;1.92;;;;;;;;;;5014793;28;20030;-85
2022/01/18 01:43:28;;;;;;;5.25;3.85;;;;;;;;;;5027393;28;20067;-87
2022/01/18 01:45:54;;;;;;;4.45;2.88;;;;;;;;;;5011954;28;20033;-86
2022/01/18 01:48:23;;;;;;;4.45;2.63;;;;;;;;;;5014524;28;20021;-85
2022/01/18 01:50:54;;;;;;;3.80;2.22;;;;;;;;;;5014312;28;20034;-84
2022/01/18 01:53:22;;;;;;;3.97;2.13;;;;;;;;;;5012286;28;20496;-87
2022/01/18 01:55:49;;;;;;;2.60;1.90;;;;;;;;;;5029893;28;20473;-85
2022/01/18 01:58:15;;;;;;;3.83;2.60;;;;;;;;;;5032195;28;20036;-85
2022/01/18 02:00:44;;;;;;;4.05;1.67;;;;;;;;;;5030451;28;20470;-84
2022/01/18 02:03:10;;;;;;;2.65;1.88;;;;;;;;;;5014140;28;20021;-83
2022/01/18 02:05:36;;;;;;;2.72;1.88;;;;;;;;;;5031394;28;20075;-87
2022/01/18 02:08:01;;;;;;;2.03;1.50;;;;;;;;;;5014185;28;20029;-87
2022/01/18 02:10:27;;;;;;;0.80;0.63;;;;;;;;;;5013317;28;20057;-85
2022/01/18 02:12:52;;;;;;;1.13;0.85;;;;;;;;;;5031498;28;20080;-84
2022/01/18 02:15:19;;;;;;;1.75;1.15;;;;;;;;;;5031461;28;20029;-85
2022/01/18 02:23:23;;;;;;;0.77;0.60;;;;;;;;;;5031985;28;20409;-87
2022/01/18 02:25:48;;;;;;;1.10;1.00;;;;;;;;;;5013753;28;20029;-86
2022/01/18 02:28:15;;;;;;;1.23;1.00;;;;;;;;;;5014190;28;20021;-88
2022/01/18 02:30:41;;;;;;;2.30;1.13;;;;;;;;;;5031772;28;20032;-84
2022/01/18 02:33:06;;;;;;;1.38;0.88;;;;;;;;;;5013823;28;20536;-87
2022/01/18 02:35:34;;;;;;;0.50;0.50;;;;;;;;;;5013840;28;20055;-85
2022/01/18 02:38:01;;;;;;;1.65;1.05;;;;;;;;;;5031845;28;20366;-88
2022/01/18 02:40:26;;;;;;;1.48;1.05;;;;;;;;;;5013492;28;20128;-85
2022/01/18 02:42:59;;;;;;;1.27;0.80;;;;;;;;;;5019965;28;20117;-86
2022/01/18 02:45:26;;;;;;;2.25;1.17;;;;;;;;;;5013404;28;20029;-85
2022/01/18 02:47:52;;;;;;;1.50;0.88;;;;;;;;;;5031547;28;20021;-85
2022/01/18 02:50:18;;;;;;;1.30;1.00;;;;;;;;;;5013636;28;20440;-87
2022/01/18 02:52:44;;;;;;;1.25;1.05;;;;;;;;;;5013565;28;20500;-85
2022/01/18 02:55:09;;;;;;;0.93;0.75;;;;;;;;;;5015940;28;20022;-84
2022/01/18 02:57:43;;;;;;;1.65;0.90;;;;;;;;;;5035147;28;20032;-84
2022/01/18 03:00:27;;;;;;;0.77;0.75;;;;;;;;;;5014737;28;20041;-84
2022/01/18 03:03:13;;;;;;;1.23;0.80;;;;;;;;;;5035013;28;20067;-84
2022/01/18 03:05:41;;;;;;;1.95;0.95;;;;;;;;;;5027187;28;20381;-85
2022/01/18 03:08:08;;;;;;;3.55;2.10;;;;;;;;;;5017637;28;20025;-85
2022/01/18 03:10:35;;;;;;;3.85;1.52;;;;;;;;;;5017450;28;20021;-84
2022/01/18 03:13:01;;;;;;;1.58;0.90;;;;;;;;;;5017429;28;20418;-85
2022/01/18 03:15:26;;;;;;;3.22;1.25;;;;;;;;;;5034924;28;20025;-85
2022/01/18 03:17:52;;;;;;;1.60;1.05;;;;;;;;;;5017444;28;20478;-84
2022/01/18 03:20:19;;;;;;;2.20;1.63;;;;;;;;;;5017371;28;20021;-84
2022/01/18 03:22:47;;;;;;;0.90;0.80;;;;;;;;;;5017307;28;20033;-85
2022/01/18 03:30:23;;;;;;;1.02;0.88;;;;;;;;;;5035211;28;20492;-84
2022/01/18 03:32:48;;;;;;;1.90;1.17;;;;;;;;;;5035162;28;20025;-86
2022/01/18 03:35:14;;;;;;;4.22;1.10;;;;;;;;;;5034384;28;20465;-85
2022/01/18 03:37:40;;;;;;;1.75;1.30;;;;;;;;;;5017039;28;20032;-86
2022/01/18 03:40:07;;;;;;;3.63;1.08;;;;;;;;;;5034438;28;20075;-84
2022/01/18 03:42:38;;;;;;;2.85;1.40;;;;;;;;;;5016934;28;20117;-86
2022/01/18 03:45:06;;;;;;;4.22;0.88;;;;;;;;;;5016322;28;20030;-84
2022/01/18 03:47:32;;;;;;;1.65;0.90;;;;;;;;;;5017218;28;20115;-87
2022/01/18 03:49:58;;;;;;;2.10;1.15;;;;;;;;;;5016414;28;20036;-84
2022/01/18 03:52:24;;;;;;;3.00;0.93;;;;;;;;;;5016778;28;20033;-84
2022/01/18 03:54:50;;;;;;;2.80;1.67;;;;;;;;;;5016162;28;20037;-84
2022/01/18 03:57:17;;;;;;;5.60;1.90;;;;;;;;;;5034368;28;20140;-87
2022/01/18 03:59:44;;;;;;;11.00;3.75;;;;;;;;;;5023167;28;20031;-85
2022/01/18 04:02:10;;;;;;;1.58;1.02;;;;;;;;;;5016157;28;20021;-84
2022/01/18 04:04:36;;;;;;;2.80;1.35;;;;;;;;;;5016096;28;20116;-88
2022/01/18 04:07:05;;;;;;;2.67;1.88;;;;;;;;;;5015272;28;20477;-87
2022/01/18 04:09:31;;;;;;;3.08;1.70;;;;;;;;;;5015884;28;20022;-86
2022/01/18 04:11:57;;;;;;;2.55;2.08;;;;;;;;;;5015419;28;20087;-85
2022/01/18 04:14:24;;;;;;;2.38;1.60;;;;;;;;;;5033106;28;20461;-83
2022/01/18 04:17:14;;;;;;;2.50;1.33;;;;;;;;;;5032507;28;20527;-85
2022/01/18 04:27:48;;;;;;;2.35;1.40;;;;;;;;;;5013574;28;20156;-84
2022/01/18 04:30:14;;;;;;;5.20;1.80;;;;;;;;;;4996570;28;20030;-84
2022/01/18 04:32:39;;;;;;;2.42;1.77;;;;;;;;;;5014042;28;20076;-84
2022/01/18 04:35:05;;;;;;;2.67;1.40;;;;;;;;;;4996190;28;21858;-84
2022/01/18 04:37:31;;;;;;;2.33;1.60;;;;;;;;;;4996348;28;20026;-85
2022/01/18 04:39:58;;;;;;;2.03;1.15;;;;;;;;;;4996135;28;20116;-85
2022/01/18 04:42:47;;;;;;;3.05;1.70;;;;;;;;;;4996521;28;20109;-85
2022/01/18 04:50:40;;;;;;;1.73;1.38;;;;;;;;;;5012431;28;20492;-85
2022/01/18 04:53:05;;;;;;;2.75;1.58;;;;;;;;;;4996189;28;20025;-85
2022/01/18 04:55:32;;;;;;;3.28;1.77;;;;;;;;;;5013562;28;20025;-84
2022/01/18 04:57:58;;;;;;;5.28;2.03;;;;;;;;;;5001167;28;20108;-85
2022/01/18 05:00:25;;;;;;;3.03;1.55;;;;;;;;;;5013439;28;20116;-85
2022/01/18 05:02:52;;;;;;;3.65;2.05;;;;;;;;;;4996083;28;20493;-87
2022/01/18 05:05:27;;;;;;;5.30;2.80;;;;;;;;;;4995671;28;20130;-89
2022/01/18 05:07:54;;;;;;;4.13;2.42;;;;;;;;;;4992331;28;20022;-86
2022/01/18 05:10:22;;;;;;;4.03;1.88;;;;;;;;;;5000894;28;20030;-86
2022/01/18 05:12:51;;;;;;;2.72;1.63;;;;;;;;;;5013189;28;20026;-85
2022/01/18 05:23:01;;;;;;;2.90;1.45;;;;;;;;;;5016411;28;20057;-85
2022/01/18 05:25:29;;;;;;;3.20;2.38;;;;;;;;;;5012637;28;20025;-87
2022/01/18 05:27:59;;;;;;;3.85;1.90;;;;;;;;;;5011971;28;20100;-86
2022/01/18 05:30:26;;;;;;;5.18;2.65;;;;;;;;;;5015213;28;20060;-87
2022/01/18 05:32:51;;;;;;;4.75;2.85;;;;;;;;;;5032479;28;20498;-90
2022/01/18 05:35:19;;;;;;;5.40;2.25;;;;;;;;;;5032677;28;20104;-89
2022/01/18 05:37:45;;;;;;;2.22;1.42;;;;;;;;;;5032748;28;20018;-85
2022/01/18 05:40:11;;;;;;;3.95;2.28;;;;;;;;;;5032323;28;20041;-86
2022/01/18 05:42:36;;;;;;;2.97;1.42;;;;;;;;;;5013715;28;20029;-84
2022/01/18 05:45:03;;;;;;;3.83;2.10;;;;;;;;;;5032326;28;20037;-85
2022/01/18 05:47:28;;;;;;;4.95;1.58;;;;;;;;;;5014484;28;20055;-86
2022/01/18 05:49:55;;;;;;;2.85;1.30;;;;;;;;;;5032137;28;20029;-84
2022/01/18 05:52:20;;;;;;;4.40;2.25;;;;;;;;;;5014375;28;20087;-85
2022/01/18 05:54:45;;;;;;;4.22;1.70;;;;;;;;;;5014024;28;20462;-86
2022/01/18 05:57:11;;;;;;;3.88;2.10;;;;;;;;;;5014301;28;20036;-86
2022/01/18 05:59:39;;;;;;;3.90;1.80;;;;;;;;;;5010762;28;20652;-84
2022/01/18 06:02:17;;;;;;;3.80;1.77;;;;;;;;;;5014012;28;20037;-85
2022/01/18 06:07:28;;;;;;;3.75;2.38;;;;;;;;;;5032473;28;20095;-87
2022/01/18 06:09:56;;;;;;;1.60;1.00;;;;;;;;;;5032019;28;20500;-85
2022/01/18 06:12:23;;;;;;;2.72;1.55;;;;;;;;;;5014585;28;20035;-84
2022/01/18 06:14:49;;;;;;;2.90;1.67;;;;;;;;;;5022029;28;20473;-86
2022/01/18 06:17:15;;;;;;;2.50;1.70;;;;;;;;;;5013498;28;20033;-86
2022/01/18 06:19:40;;;;;;;3.08;1.45;;;;;;;;;;5014298;28;20504;-85
2022/01/18 06:22:05;;;;;;;4.00;2.28;;;;;;;;;;5014335;28;20036;-86
2022/01/18 06:24:31;;;;;;;3.15;1.67;;;;;;;;;;5014199;28;20045;-85
2022/01/18 06:26:56;;;;;;;2.75;1.90;;;;;;;;;;5013737;28;20442;-85
2022/01/18 06:29:22;;;;;;;7.30;2.67;;;;;;;;;;5013401;28;20025;-84
2022/01/18 06:31:48;;;;;;;3.53;3.10;;;;;;;;;;5031891;28;20033;-85
2022/01/18 06:34:14;;;;;;;4.20;2.28;;;;;;;;;;5030176;28;20032;-84
2022/01/18 06:36:43;;;;;;;2.88;1.65;;;;;;;;;;5013769;28;20025;-85
2022/01/18 06:39:12;;;;;;;4.63;2.63;;;;;;;;;;5013896;28;20034;-85
2022/01/18 06:41:38;;;;;;;4.50;2.20;;;;;;;;;;5031847;28;20043;-86
2022/01/18 06:44:04;;;;;;;3.47;2.70;;;;;;;;;;5032332;28;20021;-86
2022/01/18 06:46:29;;;;;;;2.75;1.70;;;;;;;;;;5031975;28;20027;-84
2022/01/18 06:48:55;;;;;;;5.35;2.22;;;;;;;;;;5014248;28;20060;-86
2022/01/18 06:51:20;;;;;;;5.10;3.17;;;;;;;;;;5014359;28;20437;-85
2022/01/18 06:53:48;;;;;;;2.45;1.75;;;;;;;;;;5031450;28;20021;-83
2022/01/18 06:56:15;;;;;;;3.25;2.47;;;;;;;;;;5013979;28;20034;-85
2022/01/18 06:58:41;;;;;;;4.25;1.80;;;;;;;;;;5031793;28;20033;-84
2022/01/18 07:01:09;;;;;;;5.78;2.35;;;;;;;;;;5013608;28;20049;-84
2022/01/18 07:03:34;;;;;;;4.18;2.22;;;;;;;;;;5030802;28;20033;-85
2022/01/18 07:06:00;;;;;;;3.20;2.33;;;;;;;;;;5014885;28;20593;-85
2022/01/18 07:08:26;;;;;;;2.38;1.25;;;;;;;;;;5013808;28;20381;-88
2022/01/18 07:10:51;;;;;;;4.75;2.35;;;;;;;;;;5013449;28;20021;-84
2022/01/18 07:13:17;;;;;;;3.50;2.08;;;;;;;;;;5013758;28;20087;-84
2022/01/18 07:15:42;;;;;;;3.22;2.42;;;;;;;;;;5031366;28;20033;-86
2022/01/18 07:18:10;;;;;;;2.35;1.83;;;;;;;;;;5031013;28;20022;-85
2022/01/18 07:20:37;;;;;;;4.05;2.40;;;;;;;;;;5009854;28;20029;-86
2022/01/18 07:23:03;;;;;;;2.50;1.58;;;;;;;;;;5031230;28;20462;-85
2022/01/18 07:25:29;;;;;;;2.83;2.35;;;;;;;;;;5016698;28;20112;-85
2022/01/18 07:27:55;;;;;;;4.30;2.38;;;;;;;;;;5011486;28;20147;-83
2022/01/18 07:30:20;;;;;;;4.90;2.53;;;;;;;;;;5030365;28;20025;-87
2022/01/18 07:32:46;;;;;;;3.70;1.98;;;;;;;;;;5011475;28;20034;-85
2022/01/18 07:35:12;;;;;;;5.32;2.35;;;;;;;;;;5012071;28;20045;-86
2022/01/18 07:37:38;;;;;;;1.95;1.45;;;;;;;;;;5028292;28;20671;-84
2022/01/18 07:40:05;;;;;;;2.97;2.08;;;;;;;;;;5012699;28;20029;-88
2022/01/18 07:42:31;;;;;;;4.97;2.97;;;;;;;;;;5013974;28;20026;-86
2022/01/18 07:44:57;;;;;;;2.90;2.05;;;;;;;;;;5016577;28;20037;-86
2022/01/18 07:47:22;;;;;;;6.40;2.38;;;;;;;;;;5012963;28;20101;-85
2022/01/18 07:49:48;;;;;;;2.65;1.90;;;;;;;;;;5016169;28;20082;-83
2022/01/18 07:52:15;;;;;;;4.00;2.35;;;;;;;;;;5021667;28;20473;-83
2022/01/18 07:54:41;;;;;;;4.40;2.08;;;;;;;;;;5033966;28;20045;-82
2022/01/18 07:57:06;;;;;;;3.65;2.20;;;;;;;;;;5032801;28;20048;-82
2022/01/18 07:59:32;;;;;;;3.83;2.13;;;;;;;;;;5014849;28;20358;-85
2022/01/18 08:01:57;;;;;;;2.58;1.65;;;;;;;;;;5016149;28;20140;-82
2022/01/18 08:04:23;;;;;;;4.25;2.05;;;;;;;;;;5033464;28;20103;-83
2022/01/18 08:06:51;;;;;;;4.22;2.83;;;;;;;;;;5016743;28;20080;-83
2022/01/18 08:09:19;;;;;;;5.50;4.28;;;;;;;;;;5032280;28;20358;-81
2022/01/18 08:11:48;;;;;;;7.53;3.13;;;;;;;;;;5032114;28;20103;-82
2022/01/18 08:14:15;;;;;;;3.95;2.45;;;;;;;;;;5033137;28;20038;-82
2022/01/18 08:19:13;;;;;;;6.75;3.28;;;;;;;;;;5032533;28;20032;-83
2022/01/18 08:21:38;;;;;;;4.30;2.35;;;;;;;;;;5034332;28;20026;-81
2022/01/18 08:24:04;;;;;;;7.80;3.72;;;;;;;;;;5032493;28;20057;-80
2022/01/18 08:26:29;;;;;;;4.93;2.15;;;;;;;;;;5032926;28;20087;-84
2022/01/18 08:28:55;;;;;;;4.25;3.00;;;;;;;;;;5032678;28;20061;-84
2022/01/18 08:31:20;;;;;;;6.03;2.20;;;;;;;;;;5013449;28;20025;-83
2022/01/18 08:33:46;;;;;;;8.35;2.70;;;;;;;;;;5031423;28;20116;-82
2022/01/18 08:36:11;;;;;;;6.40;2.63;;;;;;;;;;5031814;28;20037;-81
2022/01/18 08:38:39;;;;;;;5.20;3.15;;;;;;;;;;5032665;28;20087;-81
2022/01/18 08:41:05;;;;;;;4.13;2.80;;;;;;;;;;5016134;28;20033;-80
2022/01/18 08:43:31;;;;;;;7.65;3.78;;;;;;;;;;5014799;28;20107;-82
2022/01/18 08:46:01;;;;;;;6.50;2.67;;;;;;;;;;5030918;28;20033;-82
2022/01/18 08:48:27;;;;;;;5.00;2.70;;;;;;;;;;5014614;28;20032;-82
2022/01/18 08:50:53;;;;;;;3.55;1.83;;;;;;;;;;5012508;28;20112;-82
2022/01/18 08:53:18;;;;;;;10.98;2.40;;;;;;;;;;5031748;28;20036;-82
2022/01/18 08:55:44;;;;;;;2.92;1.77;;;;;;;;;;5030612;28;20059;-83
2022/01/18 08:58:10;;;;;;;4.70;2.58;;;;;;;;;;5032546;28;20474;-81
2022/01/18 09:00:36;;;;;;;3.58;2.35;;;;;;;;;;5030491;28;20473;-82
2022/01/18 09:03:02;;;;;;;10.13;3.85;;;;;;;;;;5029811;28;20543;-81
2022/01/18 09:05:28;;;;;;;4.15;2.85;;;;;;;;;;5011245;28;20025;-82
2022/01/18 09:07:56;;;;;;;6.15;3.40;;;;;;;;;;5014143;28;20025;-81
2022/01/18 09:10:25;;;;;;;7.22;3.97;;;;;;;;;;5013088;28;20073;-81
2022/01/18 09:12:50;;;;;;;6.97;3.33;;;;;;;;;;5027014;28;20025;-81
2022/01/18 09:15:20;;;;;;;3.67;1.92;;;;;;;;;;5030535;28;20504;-81
2022/01/18 09:17:46;;;;;;;3.28;2.35;;;;;;;;;;5010553;28;20037;-81
2022/01/18 09:20:13;;;;;;;3.15;2.10;;;;;;;;;;5030594;28;20099;-81
2022/01/18 09:22:44;;;;;;;3.35;2.28;;;;;;;;;;5029744;28;20378;-86
2022/01/18 09:25:20;;;;;;;6.18;3.33;;;;;;;;;;5031500;28;20400;-82
2022/01/18 09:27:45;;;;;;;4.60;2.40;;;;;;;;;;5030927;28;20017;-80
2022/01/18 09:30:13;;;;;;;5.00;2.60;;;;;;;;;;5013157;28;20035;-81
2022/01/18 09:32:43;;;;;;;4.07;2.30;;;;;;;;;;5020022;28;20029;-84
2022/01/18 09:35:10;;;;;;;7.78;3.42;;;;;;;;;;5014674;28;20025;-82
2022/01/18 09:37:43;;;;;;;6.05;2.47;;;;;;;;;;5031426;28;20232;-87
2022/01/18 09:40:10;;;;;;;6.85;2.42;;;;;;;;;;5031452;28;20052;-81
2022/01/18 09:42:39;;;;;;;4.85;2.90;;;;;;;;;;5027461;28;20048;-80
2022/01/18 09:45:07;;;;;;;4.82;3.03;;;;;;;;;;5031216;28;20116;-80
2022/01/18 09:47:38;;;;;;;5.78;2.50;;;;;;;;;;5032820;28;20029;-80
2022/01/18 09:50:06;;;;;;;6.70;2.97;;;;;;;;;;5014391;28;20108;-82
2022/01/18 09:52:32;;;;;;;5.50;2.47;;;;;;;;;;5011904;28;20028;-79
2022/01/18 09:54:57;;;;;;;5.85;2.53;;;;;;;;;;5031548;28;20029;-80
2022/01/18 09:57:23;;;;;;;6.22;4.13;;;;;;;;;;5013629;28;20850;-80
2022/01/18 09:59:48;;;;;;;5.30;2.70;;;;;;;;;;5014500;28;20025;-79
2022/01/18 10:02:13;;;;;;;5.18;2.63;;;;;;;;;;5031089;28;20029;-81
2022/01/18 10:04:44;;;;;;;3.40;2.08;;;;;;;;;;5012784;28;20112;-81
2022/01/18 10:07:10;;;;;;;5.15;2.83;;;;;;;;;;5030274;28;20072;-80
2022/01/18 10:09:37;;;;;;;5.15;1.98;;;;;;;;;;5028077;28;20464;-83
2022/01/18 10:12:06;;;;;;;13.85;4.90;;;;;;;;;;5031355;28;20087;-80
2022/01/18 10:14:33;;;;;;;5.22;2.95;;;;;;;;;;5009009;28;20032;-79
2022/01/18 10:16:59;;;;;;;7.53;2.47;;;;;;;;;;5031127;28;20049;-80
2022/01/18 10:19:35;;;;;;;7.78;2.92;;;;;;;;;;5012285;28;20025;-80
2022/01/18 10:22:16;;;;;;;9.75;5.45;;;;;;;;;;5030866;28;20493;-81
2022/01/18 10:24:42;;;;;;;7.22;4.22;;;;;;;;;;5009521;28;20718;-81
2022/01/18 10:27:09;;;;;;;5.15;3.03;;;;;;;;;;5008955;28;20029;-82
2022/01/18 10:29:43;;;;;;;4.70;2.65;;;;;;;;;;5027395;28;20030;-82
2022/01/18 10:32:24;;;;;;;6.13;3.00;;;;;;;;;;5011225;28;20032;-80
2022/01/18 10:37:20;;;;;;;9.18;3.60;;;;;;;;;;5031280;28;20052;-85
2022/01/18 10:39:54;;;;;;;7.43;3.45;;;;;;;;;;5028711;28;20033;-81
2022/01/18 10:42:39;;;;;;;5.88;3.53;;;;;;;;;;5028800;28;20029;-81
2022/01/18 10:45:19;;;;;;;3.13;2.10;;;;;;;;;;5008174;28;20026;-79
2022/01/18 10:48:00;;;;;;;8.07;3.92;;;;;;;;;;5009741;28;20026;-81
2022/01/18 10:50:34;;;;;;;11.52;3.90;;;;;;;;;;5007781;28;20121;-81
2022/01/18 10:53:25;;;;;;;5.70;3.30;;;;;;;;;;5012512;28;20108;-81
2022/01/18 10:56:12;;;;;;;7.85;3.78;;;;;;;;;;5010495;28;20032;-81
2022/01/18 10:58:48;;;;;;;5.10;2.58;;;;;;;;;;5012413;28;20025;-81
2022/01/18 11:01:20;;;;;;;9.40;3.67;;;;;;;;;;5030577;28;20080;-84
2022/01/18 11:04:05;;;;;;;4.22;2.63;;;;;;;;;;5030392;28;20033;-84
2022/01/18 11:06:30;;;;;;;5.63;3.83;;;;;;;;;;5031052;28;20025;-82
2022/01/18 11:09:08;;;;;;;5.18;2.85;;;;;;;;;;5030386;28;20033;-84
2022/01/18 11:11:41;;;;;;;5.05;2.75;;;;;;;;;;5030520;28;20040;-81
2022/01/18 11:14:08;;;;;;;5.25;3.05;;;;;;;;;;5030186;28;20037;-79
2022/01/18 11:16:40;;;;;;;6.30;3.90;;;;;;;;;;5033343;28;20031;-80
2022/01/18 11:19:08;;;;;;;4.60;2.58;;;;;;;;;;5033573;28;20029;-79
2022/01/18 11:21:34;;;;;;;3.75;2.33;;;;;;;;;;5032785;28;20129;-79
2022/01/18 11:24:00;;;;;;;5.60;2.95;;;;;;;;;;5033978;28;20072;-79
2022/01/18 11:26:28;;;;;;;5.68;3.60;;;;;;;;;;5034069;28;20048;-78
2022/01/18 11:28:56;;;;;;;6.30;3.50;;;;;;;;;;5033968;28;20551;-79
2022/01/18 11:31:47;;;;;;;2.97;2.00;;;;;;;;;;5034380;28;20044;-78
2022/01/18 11:37:49;;;;;;;4.45;2.40;;;;;;;;;;5022762;28;20033;-78
2022/01/18 11:41:15;;;;;;;4.85;2.97;;;;;;;;;;5016609;28;20025;-79
2022/01/18 11:51:16;;;;;;;3.78;2.83;;;;;;;;;;4909798;29;20036;-79
2022/01/18 11:57:27;;;;;;;7.45;3.60;;;;;;;;;;4898588;29;20087;-79
2022/01/18 12:00:38;;;;;;;7.25;3.28;;;;;;;;;;4924283;28;20042;-78
2022/01/18 12:09:55;;;;;;;10.18;3.92;;;;;;;;;;4933290;29;20059;-78
2022/01/18 12:16:01;;;;;;;5.82;2.97;;;;;;;;;;4967259;28;20199;-79
2022/01/18 12:19:20;;;;;;;5.22;2.63;;;;;;;;;;4974569;28;20171;-79
2022/01/18 12:22:32;;;;;;;4.55;2.80;;;;;;;;;;4922802;29;20504;-79
2022/01/18 12:25:39;;;;;;;6.25;2.88;;;;;;;;;;4893736;29;20060;-77
2022/01/18 12:32:29;;;;;;;6.15;3.25;;;;;;;;;;4911404;29;20028;-78
2022/01/18 12:38:56;;;;;;;5.73;2.07;;;;;;;;;;4876754;29;20401;-78
2022/01/18 12:42:22;;;;;;;;;;;;;;;;;;;;;
2022/01/18 12:48:57;;;;;;;6.10;3.38;;;;;;;;;;4773816;29;20043;-81
2022/01/18 12:55:46;;;;;;;;;;;;;;;;;;;;;
2022/01/18 12:58:59;;;;;;;8.45;2.80;;;;;;;;;;4796826;29;20496;-84
2022/01/18 13:04:35;;;;;;;6.10;3.08;;;;;;;;;;4876462;29;20044;-80
2022/01/18 13:07:12;;;;;;;6.35;3.70;;;;;;;;;;5007568;28;20085;-78
2022/01/18 13:10:04;;;;;;;5.22;2.42;;;;;;;;;;5012331;28;20425;-82
2022/01/18 13:12:40;;;;;;;6.22;2.72;;;;;;;;;;5010275;28;20032;-77
2022/01/18 13:15:39;;;;;;;4.03;1.77;;;;;;;;;;5008512;28;20096;-78
2022/01/18 13:24:36;;;;;;;3.97;2.08;;;;;;;;;;5020909;28;20048;-80
2022/01/18 13:26:57;;;;;;;5.07;2.88;;;;;;;;;;5030123;28;20072;-79
2022/01/18 13:29:39;;;;;;;3.33;2.20;;;;;;;;;;5024348;28;20147;-79
2022/01/18 13:32:11;;;;;;;5.80;3.08;;;;;;;;;;5031167;28;20474;-79
2022/01/18 13:34:40;;;;;;;6.47;2.80;;;;;;;;;;5009008;28;20076;-77
2022/01/18 13:37:08;;;;;;;7.73;3.67;;;;;;;;;;5028730;28;20486;-80
2022/01/18 13:39:44;;;;;;;4.68;2.72;;;;;;;;;;5032063;28;20537;-81
2022/01/18 13:42:11;;;;;;;5.95;3.03;;;;;;;;;;5031181;28;20424;-79
2022/01/18 13:44:37;;;;;;;4.72;3.15;;;;;;;;;;5028282;28;20035;-77
2022/01/18 13:47:17;;;;;;;6.53;2.60;;;;;;;;;;5029544;28;20025;-75
2022/01/18 13:49:42;;;;;;;5.65;3.42;;;;;;;;;;5030483;28;20034;-78
2022/01/18 13:52:13;;;;;;;8.70;3.20;;;;;;;;;;5022884;28;20080;-80
2022/01/18 13:54:56;;;;;;;4.72;3.00;;;;;;;;;;5010957;28;20032;-79
2022/01/18 13:57:23;;;;;;;5.35;3.10;;;;;;;;;;5013112;28;20025;-77
2022/01/18 13:59:50;;;;;;;5.10;3.00;;;;;;;;;;5008953;28;20516;-77
2022/01/18 14:02:22;;;;;;;5.05;2.15;;;;;;;;;;5026856;28;20040;-83
2022/01/18 14:05:08;;;;;;;4.43;2.78;;;;;;;;;;5026716;28;20030;-77
2022/01/18 14:07:40;;;;;;;6.35;3.22;;;;;;;;;;5011336;28;20389;-79
2022/01/18 14:10:06;;;;;;;6.07;2.65;;;;;;;;;;5030159;28;20109;-79
2022/01/18 14:12:33;;;;;;;4.90;2.83;;;;;;;;;;5011299;28;20108;-77
2022/01/18 14:15:00;;;;;;;6.97;3.78;;;;;;;;;;5029253;28;20033;-78
2022/01/18 14:17:26;;;;;;;6.50;3.35;;;;;;;;;;5030639;28;20029;-79
2022/01/18 14:20:08;;;;;;;9.55;5.10;;;;;;;;;;5009959;28;20075;-78
2022/01/18 14:22:38;;;;;;;15.40;7.65;;;;;;;;;;5010275;28;20029;-79
2022/01/18 14:25:07;;;;;;;16.80;6.25;;;;;;;;;;5030048;28;20091;-79
2022/01/18 14:27:41;;;;;;;3.03;2.17;;;;;;;;;;5028744;28;20057;-79
2022/01/18 14:30:18;;;;;;;9.93;4.85;;;;;;;;;;5029094;28;20069;-79
2022/01/18 14:32:44;;;;;;;3.42;2.47;;;;;;;;;;5009967;28;20117;-79
2022/01/18 14:35:15;;;;;;;6.25;3.63;;;;;;;;;;5029866;28;20904;-78
2022/01/18 14:37:51;;;;;;;7.30;4.78;;;;;;;;;;5028288;28;20060;-80
2022/01/18 14:40:21;;;;;;;12.48;5.57;;;;;;;;;;5025922;28;20033;-81
2022/01/18 14:42:51;;;;;;;9.57;5.10;;;;;;;;;;5029279;28;20117;-78
2022/01/18 14:45:32;;;;;;;14.20;6.53;;;;;;;;;;5029994;28;20029;-78
2022/01/18 14:47:59;;;;;;;10.73;4.93;;;;;;;;;;5029327;28;20465;-79
2022/01/18 14:50:25;;;;;;;9.52;5.00;;;;;;;;;;5031498;28;20017;-80
2022/01/18 14:52:52;;;;;;;6.80;3.80;;;;;;;;;;5034243;28;20727;-80
2022/01/18 14:55:20;;;;;;;8.02;3.92;;;;;;;;;;5034141;28;20029;-79
2022/01/18 14:57:46;;;;;;;14.68;6.22;;;;;;;;;;5014715;28;20482;-82
2022/01/18 15:00:14;;;;;;;9.38;5.75;;;;;;;;;;5034032;28;20494;-79
2022/01/18 15:02:40;;;;;;;9.50;4.38;;;;;;;;;;5034117;28;20036;-80
2022/01/18 15:05:07;;;;;;;4.78;3.30;;;;;;;;;;5013734;28;20170;-81
2022/01/18 15:07:34;;;;;;;5.57;1.95;;;;;;;;;;5031630;28;20087;-80
2022/01/18 15:09:59;;;;;;;5.65;2.85;;;;;;;;;;5032285;28;20389;-80
2022/01/18 15:12:25;;;;;;;10.05;3.75;;;;;;;;;;5033632;28;20033;-80
2022/01/18 15:14:51;;;;;;;6.18;4.00;;;;;;;;;;5014737;28;20032;-80
2022/01/18 15:17:16;;;;;;;6.13;2.90;;;;;;;;;;5033811;28;20025;-80
2022/01/18 15:19:42;;;;;;;6.13;3.45;;;;;;;;;;5032933;28;20029;-77
2022/01/18 15:22:09;;;;;;;2.85;1.75;;;;;;;;;;5015279;28;20492;-77
2022/01/18 15:24:36;;;;;;;3.92;2.15;;;;;;;;;;5033614;28;20076;-78
2022/01/18 15:27:02;;;;;;;6.22;3.08;;;;;;;;;;5032866;28;20033;-77
2022/01/18 15:29:29;;;;;;;6.05;2.58;;;;;;;;;;5014476;28;20075;-81
2022/01/18 15:31:55;;;;;;;5.20;3.38;;;;;;;;;;5027075;28;20026;-79
2022/01/18 15:34:21;;;;;;;3.75;2.60;;;;;;;;;;5029762;28;20488;-79
2022/01/18 15:36:47;;;;;;;7.32;4.13;;;;;;;;;;5030347;28;20038;-80
2022/01/18 15:39:14;;;;;;;5.22;3.33;;;;;;;;;;5032033;28;20025;-80
2022/01/18 15:41:41;;;;;;;8.35;6.05;;;;;;;;;;5029857;28;20028;-79
2022/01/18 15:44:08;;;;;;;6.40;3.70;;;;;;;;;;5029718;28;20233;-79
2022/01/18 15:46:33;;;;;;;6.47;3.75;;;;;;;;;;5028388;28;20168;-79
2022/01/18 15:48:59;;;;;;;8.00;3.92;;;;;;;;;;5014131;28;20104;-80
2022/01/18 15:51:24;;;;;;;6.90;3.05;;;;;;;;;;5014699;28;20038;-79
2022/01/18 15:53:52;;;;;;;3.70;2.78;;;;;;;;;;5014772;28;20428;-79
2022/01/18 15:56:19;;;;;;;4.95;2.80;;;;;;;;;;5014615;28;20063;-79
2022/01/18 15:58:45;;;;;;;11.57;3.38;;;;;;;;;;5031653;28;20034;-78
2022/01/18 16:01:10;;;;;;;5.55;3.15;;;;;;;;;;5032283;28;20033;-78
2022/01/18 16:03:36;;;;;;;5.93;3.78;;;;;;;;;;5013520;28;20029;-78
2022/01/18 16:06:02;;;;;;;5.63;3.47;;;;;;;;;;5028253;28;20120;-79
2022/01/18 16:08:28;;;;;;;9.63;2.80;;;;;;;;;;5026660;28;20022;-78
2022/01/18 16:10:53;;;;;;;5.53;2.80;;;;;;;;;;5010064;28;20113;-79
2022/01/18 16:33:30;;;;;;;7.35;3.78;;;;;;;;;;4748597;23;20091;-80
2022/01/18 16:35:55;;;;;;;7.93;3.92;;;;;;;;;;4897465;29;20036;-79
2022/01/18 16:38:21;;;;;;;6.93;3.85;;;;;;;;;;4884963;29;20031;-79
2022/01/18 16:40:46;;;;;;;8.32;5.07;;;;;;;;;;4880440;29;20449;-78
2022/01/18 16:43:12;;;;;;;8.10;3.28;;;;;;;;;;4897500;29;20028;-78
2022/01/18 16:45:38;;;;;;;5.68;3.08;;;;;;;;;;4897451;29;20032;-79
2022/01/18 16:48:04;;;;;;;4.90;2.63;;;;;;;;;;4897475;29;20107;-78
2022/01/18 16:50:30;;;;;;;5.13;3.35;;;;;;;;;;4897407;29;20540;-77
2022/01/18 16:52:56;;;;;;;4.82;3.28;;;;;;;;;;4892578;29;20108;-79
2022/01/18 16:55:22;;;;;;;8.52;4.30;;;;;;;;;;4893257;29;20047;-77
2022/01/18 16:57:47;;;;;;;8.40;3.92;;;;;;;;;;4894829;29;20029;-77
2022/01/18 17:00:15;;;;;;;4.25;2.42;;;;;;;;;;4879522;29;20037;-81
2022/01/18 17:02:42;;;;;;;6.18;3.80;;;;;;;;;;4879940;29;20088;-77
2022/01/18 17:05:09;;;;;;;6.45;3.55;;;;;;;;;;4895251;29;20029;-78
2022/01/18 17:07:35;;;;;;;5.65;3.85;;;;;;;;;;4867834;29;20025;-78
2022/01/18 17:10:01;;;;;;;6.93;4.32;;;;;;;;;;4893067;29;20404;-78
2022/01/18 17:12:26;;;;;;;3.15;2.40;;;;;;;;;;4879199;29;20036;-79
2022/01/18 17:14:52;;;;;;;9.07;3.88;;;;;;;;;;4896821;29;20552;-81
2022/01/18 17:17:18;;;;;;;8.50;4.10;;;;;;;;;;4890912;29;20115;-80
2022/01/18 17:19:44;;;;;;;7.90;3.47;;;;;;;;;;4896710;29;20467;-82